createdAt,value
2023-07-24T00:01:46.408Z,18.50
2023-07-24T00:04:14.597Z,18.60
2023-07-24T00:06:42.706Z,18.60
2023-07-24T00:09:10.798Z,18.60
2023-07-24T00:11:38.829Z,18.60
2023-07-24T00:14:06.996Z,18.60
2023-07-24T00:16:36.549Z,18.50
2023-07-24T00:19:04.668Z,18.50
2023-07-24T00:21:32.750Z,18.50
2023-07-24T00:24:00.967Z,18.50
2023-07-24T00:26:29.497Z,18.40
2023-07-24T00:28:58.270Z,18.40
2023-07-24T00:31:26.449Z,18.30
2023-07-24T00:33:56.033Z,18.30
2023-07-24T00:36:24.178Z,18.30
2023-07-24T00:38:52.205Z,18.30
2023-07-24T00:41:20.414Z,18.30
2023-07-24T00:43:48.466Z,18.30
2023-07-24T00:46:16.891Z,18.20
2023-07-24T00:48:45.325Z,18.20
2023-07-24T00:51:14.899Z,18.10
2023-07-24T00:53:43.034Z,18.10
2023-07-24T00:56:12.307Z,18.10
2023-07-24T00:58:41.528Z,18.00
2023-07-24T01:01:10.224Z,18.10
2023-07-24T01:03:39.093Z,18.00
2023-07-24T01:06:07.648Z,17.90
2023-07-24T01:08:38.319Z,17.90
2023-07-24T01:11:14.238Z,17.90
2023-07-24T01:13:49.600Z,17.90
2023-07-24T01:16:23.624Z,17.90
2023-07-24T01:18:53.421Z,17.90
2023-07-24T01:21:39.334Z,18.00
2023-07-24T01:24:20.008Z,18.00
2023-07-24T01:26:49.906Z,18.00
2023-07-24T01:29:17.941Z,18.00
2023-07-24T01:31:46.025Z,18.10
2023-07-24T01:34:15.397Z,18.10
2023-07-24T01:36:43.611Z,18.00
2023-07-24T01:39:12.822Z,18.00
2023-07-24T01:41:42.380Z,17.90
2023-07-24T01:44:11.807Z,17.80
2023-07-24T01:46:40.146Z,17.80
2023-07-24T01:49:08.327Z,17.80
2023-07-24T01:51:36.482Z,17.80
2023-07-24T01:54:04.664Z,17.80
2023-07-24T01:56:33.144Z,17.80
2023-07-24T01:59:01.463Z,17.80
2023-07-24T02:01:30.955Z,17.80
2023-07-24T02:03:59.060Z,17.80
2023-07-24T02:06:27.421Z,17.80
2023-07-24T02:08:55.755Z,17.80
2023-07-24T02:11:23.993Z,17.80
2023-07-24T02:13:53.424Z,17.80
2023-07-24T02:16:21.554Z,17.70
2023-07-24T02:18:52.528Z,17.70
2023-07-24T02:21:20.590Z,17.60
2023-07-24T02:23:48.656Z,17.60
2023-07-24T02:26:16.792Z,17.60
2023-07-24T02:28:44.888Z,17.60
2023-07-24T02:31:13.071Z,17.60
2023-07-24T02:33:41.273Z,17.50
2023-07-24T02:36:10.794Z,17.50
2023-07-24T02:38:39.055Z,17.50
2023-07-24T02:41:09.259Z,17.40
2023-07-24T02:43:37.749Z,17.50
2023-07-24T02:46:05.935Z,17.40
2023-07-24T02:48:34.073Z,17.40
2023-07-24T02:51:02.263Z,17.40
2023-07-24T02:53:31.742Z,17.30
2023-07-24T02:55:59.835Z,17.40
2023-07-24T02:58:28.137Z,17.40
2023-07-24T03:00:58.019Z,17.40
2023-07-24T03:03:26.288Z,17.40
2023-07-24T03:05:54.913Z,17.40
2023-07-24T03:08:22.976Z,17.50
2023-07-24T03:10:52.460Z,17.50
2023-07-24T03:13:20.637Z,17.50
2023-07-24T03:15:55.017Z,17.60
2023-07-24T03:18:23.304Z,17.60
2023-07-24T03:20:52.337Z,17.60
2023-07-24T03:23:21.257Z,17.60
2023-07-24T03:25:49.598Z,17.60
2023-07-24T03:28:20.155Z,17.70
2023-07-24T03:30:48.337Z,17.70
2023-07-24T03:33:16.484Z,17.80
2023-07-24T03:35:44.566Z,17.80
2023-07-24T03:38:12.719Z,17.70
2023-07-24T03:40:40.795Z,17.80
2023-07-24T03:43:08.891Z,17.80
2023-07-24T03:45:38.637Z,17.70
2023-07-24T03:48:07.335Z,17.70
2023-07-24T03:50:35.484Z,17.70
2023-07-24T03:53:03.569Z,17.70
2023-07-24T03:55:31.768Z,17.80
2023-07-24T03:57:59.900Z,17.80
2023-07-24T04:00:28.132Z,17.90
2023-07-24T04:02:58.047Z,17.80
2023-07-24T04:05:27.324Z,17.90
2023-07-24T04:07:56.840Z,17.90
2023-07-24T04:10:24.929Z,18.00
2023-07-24T04:12:53.006Z,17.90
2023-07-24T04:15:21.228Z,18.00
2023-07-24T04:17:49.303Z,18.00
2023-07-24T04:20:18.940Z,18.00
2023-07-24T04:22:47.013Z,18.00
2023-07-24T04:25:15.073Z,18.10
2023-07-24T04:27:43.286Z,18.10
2023-07-24T04:30:12.064Z,18.20
2023-07-24T04:32:40.162Z,18.10
2023-07-24T04:35:09.397Z,18.20
2023-07-24T04:37:38.824Z,18.20
2023-07-24T04:40:08.125Z,18.20
2023-07-24T04:42:36.255Z,18.20
2023-07-24T04:45:04.580Z,18.20
2023-07-24T04:47:32.711Z,18.20
2023-07-24T04:50:00.785Z,18.20
2023-07-24T04:52:28.863Z,18.20
2023-07-24T04:54:58.275Z,18.30
2023-07-24T04:57:26.346Z,18.30
2023-07-24T04:59:54.518Z,18.30
2023-07-24T05:02:22.585Z,18.30
2023-07-24T05:04:51.187Z,18.30
2023-07-24T05:07:19.272Z,18.30
2023-07-24T05:09:47.452Z,18.30
2023-07-24T05:12:16.881Z,18.20
2023-07-24T05:14:44.936Z,18.30
2023-07-24T05:17:13.015Z,18.30
2023-07-24T05:19:41.222Z,18.30
2023-07-24T05:22:11.292Z,18.30
2023-07-24T05:24:40.133Z,18.40
2023-07-24T05:27:08.409Z,18.40
2023-07-24T05:29:37.866Z,18.40
2023-07-24T05:32:06.982Z,18.40
2023-07-24T05:34:35.239Z,18.40
2023-07-24T05:37:03.300Z,18.50
2023-07-24T05:39:32.205Z,18.60
2023-07-24T05:42:00.308Z,18.60
2023-07-24T05:44:28.389Z,18.60
2023-07-24T05:46:57.948Z,18.60
2023-07-24T05:49:27.319Z,18.50
2023-07-24T05:51:55.475Z,18.50
2023-07-24T05:54:23.763Z,18.50
2023-07-24T05:56:53.946Z,18.50
2023-07-24T05:59:22.013Z,18.50
2023-07-24T06:01:50.260Z,18.50
2023-07-24T06:04:19.792Z,18.50
2023-07-24T06:06:47.934Z,18.60
2023-07-24T06:09:16.056Z,18.60
2023-07-24T06:11:44.191Z,18.60
2023-07-24T06:14:12.453Z,18.70
2023-07-24T06:16:40.623Z,18.70
2023-07-24T06:19:08.921Z,18.80
2023-07-24T06:21:38.453Z,18.90
2023-07-24T06:24:06.877Z,19.00
2023-07-24T06:26:34.920Z,19.10
2023-07-24T06:29:03.005Z,19.10
2023-07-24T06:31:31.122Z,19.10
2023-07-24T06:33:59.272Z,19.10
2023-07-24T06:36:27.620Z,19.10
2023-07-24T06:38:57.483Z,19.00
2023-07-24T06:41:26.181Z,19.00
2023-07-24T06:43:54.373Z,18.90
2023-07-24T06:46:22.548Z,19.00
2023-07-24T06:48:50.617Z,19.10
2023-07-24T06:51:18.672Z,19.10
2023-07-24T06:53:46.734Z,19.10
2023-07-24T06:56:16.213Z,19.10
2023-07-24T06:58:44.376Z,19.20
2023-07-24T07:01:12.530Z,19.30
2023-07-24T07:03:40.711Z,19.40
2023-07-24T07:08:55.921Z,19.60
2023-07-24T07:11:25.529Z,19.80
2023-07-24T07:13:53.555Z,19.90
2023-07-24T07:16:21.688Z,19.90
2023-07-24T07:18:49.839Z,19.90
2023-07-24T07:21:18.060Z,19.90
2023-07-24T07:23:47.534Z,20.10
2023-07-24T07:26:15.831Z,20.10
2023-07-24T07:28:45.891Z,20.20
2023-07-24T07:31:14.453Z,20.10
2023-07-24T07:33:42.644Z,20.10
2023-07-24T07:36:10.705Z,19.90
2023-07-24T07:38:40.679Z,19.90
2023-07-24T07:41:09.361Z,19.90
2023-07-24T07:43:38.944Z,19.90
2023-07-24T07:46:08.376Z,19.90
2023-07-24T07:48:36.512Z,19.90
2023-07-24T07:51:04.800Z,20.00
2023-07-24T07:53:33.716Z,20.30
2023-07-24T07:56:01.886Z,20.40
2023-07-24T07:58:30.064Z,20.30
2023-07-24T08:00:58.217Z,20.20
2023-07-24T08:03:27.635Z,20.10
2023-07-24T08:05:59.173Z,20.00
2023-07-24T08:08:27.481Z,20.00
2023-07-24T08:10:55.596Z,20.10
2023-07-24T08:13:23.764Z,20.10
2023-07-24T08:15:52.160Z,20.20
2023-07-24T08:18:20.259Z,20.30
2023-07-24T08:20:49.691Z,20.40
2023-07-24T08:23:17.913Z,20.40
2023-07-24T08:25:53.778Z,20.30
2023-07-24T08:28:22.292Z,20.40
2023-07-24T08:30:59.063Z,20.50
2023-07-24T08:33:27.393Z,20.50
2023-07-24T08:36:07.296Z,20.60
2023-07-24T08:38:35.915Z,20.70
2023-07-24T08:41:08.649Z,20.90
2023-07-24T08:43:38.513Z,21.00
2023-07-24T08:46:07.848Z,21.30
2023-07-24T08:48:37.749Z,21.40
2023-07-24T08:51:10.160Z,21.30
2023-07-24T08:53:40.740Z,21.00
2023-07-24T08:56:10.474Z,20.60
2023-07-24T08:58:40.557Z,20.30
2023-07-24T09:01:09.571Z,20.00
2023-07-24T09:03:38.388Z,19.90
2023-07-24T09:06:08.974Z,19.60
2023-07-24T09:08:38.215Z,19.50
2023-07-24T09:11:07.528Z,19.50
2023-07-24T09:13:38.364Z,19.40
2023-07-24T09:16:07.219Z,19.40
2023-07-24T09:18:41.856Z,19.40
2023-07-24T09:21:13.138Z,19.40
2023-07-24T09:23:41.971Z,19.30
2023-07-24T09:26:10.216Z,19.30
2023-07-24T09:28:38.956Z,19.30
2023-07-24T09:31:07.098Z,19.30
2023-07-24T09:33:39.345Z,19.30
2023-07-24T09:36:09.503Z,19.40
2023-07-24T09:38:41.664Z,19.80
2023-07-24T09:41:10.218Z,20.20
2023-07-24T09:43:41.080Z,20.50
2023-07-24T09:46:11.332Z,20.50
2023-07-24T09:48:43.959Z,20.80
2023-07-24T09:51:31.062Z,20.80
2023-07-24T09:54:03.738Z,20.70
2023-07-24T09:56:47.572Z,20.60
2023-07-24T09:59:21.569Z,20.70
2023-07-24T10:01:51.067Z,21.10
2023-07-24T10:04:20.252Z,21.00
2023-07-24T10:06:49.290Z,20.70
2023-07-24T10:09:20.276Z,20.30
2023-07-24T10:11:48.548Z,20.10
2023-07-24T10:14:17.476Z,19.90
2023-07-24T10:16:47.184Z,19.80
2023-07-24T10:19:17.027Z,19.80
2023-07-24T10:21:48.521Z,19.70
2023-07-24T10:24:31.406Z,19.70
2023-07-24T10:27:07.864Z,19.70
2023-07-24T10:29:39.983Z,19.60
2023-07-24T10:32:19.308Z,19.60
2023-07-24T10:34:47.634Z,19.60
2023-07-24T10:37:15.654Z,19.60
2023-07-24T10:39:47.012Z,19.40
2023-07-24T10:42:15.744Z,19.10
2023-07-24T10:44:44.004Z,18.90
2023-07-24T10:47:12.580Z,19.00
2023-07-24T10:49:50.161Z,19.00
2023-07-24T10:52:18.220Z,19.00
2023-07-24T10:54:52.439Z,19.00
2023-07-24T10:57:27.851Z,19.10
2023-07-24T10:59:55.926Z,19.30
2023-07-24T11:02:24.209Z,19.60
2023-07-24T11:04:52.432Z,19.80
2023-07-24T11:07:20.939Z,19.90
2023-07-24T11:09:52.214Z,20.00
2023-07-24T11:12:20.283Z,20.10
2023-07-24T11:14:49.873Z,20.10
2023-07-24T11:17:18.144Z,20.30
2023-07-24T11:19:46.274Z,20.50
2023-07-24T11:22:14.953Z,20.60
2023-07-24T11:24:47.943Z,20.70
2023-07-24T11:27:19.876Z,20.70
2023-07-24T11:29:50.682Z,20.80
2023-07-24T11:32:22.010Z,20.80
2023-07-24T11:34:52.404Z,20.80
2023-07-24T11:37:20.586Z,20.60
2023-07-24T11:39:58.265Z,20.30
2023-07-24T11:42:30.625Z,20.10
2023-07-24T11:45:02.399Z,19.90
2023-07-24T11:47:30.949Z,19.80
2023-07-24T11:50:00.513Z,19.90
2023-07-24T11:52:28.578Z,19.90
2023-07-24T11:55:02.113Z,19.80
2023-07-24T11:57:31.898Z,19.80
2023-07-24T11:59:59.962Z,19.70
2023-07-24T12:02:29.597Z,19.60
2023-07-24T12:04:59.362Z,19.50
2023-07-24T12:07:33.645Z,19.40
2023-07-24T12:10:03.309Z,19.30
2023-07-24T12:12:47.363Z,19.20
2023-07-24T12:15:16.936Z,19.00
2023-07-24T12:17:45.131Z,18.90
2023-07-24T12:20:13.548Z,18.90
2023-07-24T12:22:41.629Z,18.90
2023-07-24T12:25:10.323Z,18.80
2023-07-24T12:27:40.753Z,18.20
2023-07-24T12:30:11.205Z,17.50
2023-07-24T12:32:39.493Z,17.20
2023-07-24T12:35:09.152Z,17.10
2023-07-24T12:37:37.485Z,17.00
2023-07-24T12:40:06.504Z,16.90
2023-07-24T12:42:34.579Z,16.90
2023-07-24T12:45:04.746Z,16.90
2023-07-24T12:47:34.440Z,16.80
2023-07-24T12:50:05.671Z,16.80
2023-07-24T12:52:35.725Z,16.60
2023-07-24T12:55:03.961Z,16.70
2023-07-24T12:57:32.154Z,16.80
2023-07-24T13:00:00.217Z,17.00
2023-07-24T13:02:28.341Z,17.20
2023-07-24T13:04:57.851Z,17.40
2023-07-24T13:07:26.074Z,17.50
2023-07-24T13:09:54.143Z,17.70
2023-07-24T13:12:22.629Z,17.90
2023-07-24T13:14:50.729Z,18.30
2023-07-24T13:17:19.016Z,18.40
2023-07-24T13:19:47.046Z,18.50
2023-07-24T13:22:16.628Z,18.60
2023-07-24T13:24:44.689Z,18.70
2023-07-24T13:27:12.918Z,18.90
2023-07-24T13:29:41.036Z,19.10
2023-07-24T13:32:10.039Z,19.00
2023-07-24T13:34:38.117Z,19.40
2023-07-24T13:37:06.735Z,19.60
2023-07-24T13:39:36.489Z,19.70
2023-07-24T13:42:04.646Z,19.80
2023-07-24T13:44:32.830Z,19.90
2023-07-24T13:47:00.989Z,19.80
2023-07-24T13:49:29.122Z,20.00
2023-07-24T13:51:57.204Z,19.80
2023-07-24T13:54:25.330Z,19.90
2023-07-24T13:56:54.853Z,20.10
2023-07-24T13:59:22.953Z,20.00
2023-07-24T14:01:51.029Z,20.10
2023-07-24T14:04:19.313Z,19.90
2023-07-24T14:06:47.563Z,20.00
2023-07-24T14:09:15.642Z,20.00
2023-07-24T14:11:43.707Z,20.00
2023-07-24T14:14:13.468Z,20.30
2023-07-24T14:16:43.127Z,20.30
2023-07-24T14:19:11.615Z,20.40
2023-07-24T14:21:39.702Z,20.60
2023-07-24T14:24:07.831Z,20.70
2023-07-24T14:26:37.834Z,20.70
2023-07-24T14:29:06.429Z,20.80
2023-07-24T14:31:36.057Z,20.80
2023-07-24T14:34:04.211Z,20.80
2023-07-24T14:36:35.028Z,20.90
2023-07-24T14:39:03.521Z,20.70
2023-07-24T14:41:32.096Z,20.60
2023-07-24T14:44:00.514Z,20.60
2023-07-24T14:46:28.986Z,20.60
2023-07-24T14:48:58.456Z,20.70
2023-07-24T14:51:27.189Z,20.80
2023-07-24T14:53:55.421Z,20.90
2023-07-24T14:56:23.667Z,21.00
2023-07-24T14:58:51.723Z,21.20
2023-07-24T15:01:19.922Z,21.40
2023-07-24T15:03:48.062Z,21.10
2023-07-24T15:06:17.523Z,21.00
2023-07-24T15:08:45.710Z,20.80
2023-07-24T15:11:14.480Z,20.70
2023-07-24T15:13:42.539Z,21.00
2023-07-24T15:16:11.030Z,21.20
2023-07-24T15:18:39.438Z,21.20
2023-07-24T15:21:07.492Z,21.10
2023-07-24T15:23:37.024Z,20.90
2023-07-24T15:26:05.157Z,20.70
2023-07-24T15:28:33.382Z,20.50
2023-07-24T15:31:01.732Z,20.50
2023-07-24T15:33:30.673Z,20.30
2023-07-24T15:35:58.801Z,20.20
2023-07-24T15:38:26.837Z,20.20
2023-07-24T15:40:56.291Z,20.20
2023-07-24T15:43:26.014Z,20.30
2023-07-24T15:45:54.130Z,20.50
2023-07-24T15:48:26.471Z,20.70
2023-07-24T15:50:55.192Z,20.70
2023-07-24T15:53:23.283Z,20.70
2023-07-24T15:55:51.405Z,20.60
2023-07-24T15:58:20.898Z,20.50
2023-07-24T16:00:49.144Z,20.30
2023-07-24T16:03:17.415Z,20.20
2023-07-24T16:05:45.537Z,20.20
2023-07-24T16:08:13.615Z,20.10
2023-07-24T16:10:42.056Z,20.00
2023-07-24T16:13:10.205Z,20.00
2023-07-24T16:18:10.708Z,20.00
2023-07-24T16:20:39.004Z,20.10
2023-07-24T16:23:09.080Z,20.20
2023-07-24T16:25:37.132Z,20.20
2023-07-24T16:28:05.564Z,20.20
2023-07-24T16:30:34.792Z,20.20
2023-07-24T16:33:04.654Z,20.10
2023-07-24T16:35:33.171Z,20.10
2023-07-24T16:38:03.546Z,20.10
2023-07-24T16:40:33.461Z,20.10
2023-07-24T16:43:01.561Z,20.00
2023-07-24T16:45:36.258Z,20.00
2023-07-24T16:48:07.190Z,20.10
2023-07-24T16:50:36.615Z,20.10
2023-07-24T16:53:05.172Z,20.10
2023-07-24T16:55:33.239Z,20.20
2023-07-24T16:58:01.302Z,20.40
2023-07-24T17:00:29.608Z,20.40
2023-07-24T17:02:57.865Z,20.40
2023-07-24T17:05:27.476Z,20.50
2023-07-24T17:07:55.576Z,20.50
2023-07-24T17:10:23.789Z,20.20
2023-07-24T17:12:52.082Z,20.10
2023-07-24T17:15:20.183Z,20.00
2023-07-24T17:17:48.268Z,19.90
2023-07-24T17:20:16.357Z,19.90
2023-07-24T17:22:45.798Z,19.80
2023-07-24T17:25:14.089Z,19.80
2023-07-24T17:27:42.128Z,19.80
2023-07-24T17:30:10.830Z,19.90
2023-07-24T17:32:38.928Z,19.90
2023-07-24T17:35:08.274Z,19.80
2023-07-24T17:37:38.736Z,19.80
2023-07-24T17:40:10.074Z,19.80
2023-07-24T17:42:38.585Z,19.70
2023-07-24T17:45:07.530Z,19.70
2023-07-24T17:47:36.061Z,19.70
2023-07-24T17:50:08.466Z,19.70
2023-07-24T17:52:37.117Z,19.60
2023-07-24T17:55:06.061Z,19.50
2023-07-24T17:57:35.534Z,19.50
2023-07-24T18:00:04.277Z,19.40
2023-07-24T18:02:33.569Z,19.30
2023-07-24T18:05:01.715Z,19.30
2023-07-24T18:07:29.807Z,19.10
2023-07-24T18:09:57.951Z,19.10
2023-07-24T18:12:26.465Z,19.00
2023-07-24T18:14:55.998Z,18.90
2023-07-24T18:17:24.423Z,18.80
2023-07-24T18:19:52.486Z,18.80
2023-07-24T18:22:22.103Z,18.70
2023-07-24T18:24:50.239Z,18.70
2023-07-24T18:27:18.453Z,18.70
2023-07-24T18:29:46.999Z,18.60
2023-07-24T18:32:16.468Z,18.60
2023-07-24T18:34:44.570Z,18.70
2023-07-24T18:37:13.058Z,18.60
2023-07-24T18:39:41.559Z,18.60
2023-07-24T18:42:09.626Z,18.60
2023-07-24T18:44:37.735Z,18.50
2023-07-24T18:47:06.166Z,18.50
2023-07-24T18:49:35.739Z,18.50
2023-07-24T18:52:03.911Z,18.40
2023-07-24T18:54:31.970Z,18.40
2023-07-24T18:57:00.140Z,18.30
2023-07-24T18:59:28.528Z,18.30
2023-07-24T19:01:56.615Z,18.30
2023-07-24T19:04:24.707Z,18.30
2023-07-24T19:06:54.183Z,18.20
2023-07-24T19:09:22.313Z,18.20
2023-07-24T19:11:51.072Z,18.20
2023-07-24T19:14:19.146Z,18.20
2023-07-24T19:16:47.225Z,18.20
2023-07-24T19:19:15.289Z,18.10
2023-07-24T19:21:43.379Z,18.20
2023-07-24T19:24:13.096Z,18.20
2023-07-24T19:26:41.175Z,18.20
2023-07-24T19:29:09.277Z,18.20
2023-07-24T19:31:37.427Z,18.10
2023-07-24T19:34:05.518Z,18.00
2023-07-24T19:36:33.679Z,18.00
2023-07-24T19:39:01.742Z,17.90
2023-07-24T19:41:31.252Z,17.90
2023-07-24T19:43:59.662Z,17.90
2023-07-24T19:46:27.742Z,17.90
2023-07-24T19:48:55.811Z,17.80
2023-07-24T19:51:23.912Z,17.80
2023-07-24T19:53:51.961Z,17.90
2023-07-24T19:56:20.091Z,17.80
2023-07-24T19:58:50.254Z,17.90
2023-07-24T20:01:18.368Z,17.80
2023-07-24T20:03:46.551Z,17.90
2023-07-24T20:06:14.666Z,17.90
2023-07-24T20:08:42.741Z,17.90
2023-07-24T20:11:10.797Z,17.90
2023-07-24T20:13:39.077Z,17.80
2023-07-24T20:16:08.698Z,17.80
2023-07-24T20:18:36.940Z,17.80
2023-07-24T20:21:05.196Z,17.70
2023-07-24T20:23:33.269Z,17.70
2023-07-24T20:26:01.356Z,17.60
2023-07-24T20:28:29.436Z,17.70
2023-07-24T20:30:57.570Z,17.60
2023-07-24T20:33:27.595Z,17.60
2023-07-24T20:35:55.796Z,17.60
2023-07-24T20:38:25.516Z,17.50
2023-07-24T20:40:54.171Z,17.60
2023-07-24T20:43:22.335Z,17.50
2023-07-24T20:45:51.711Z,17.50
2023-07-24T20:48:21.335Z,17.40
2023-07-24T20:50:51.235Z,17.40
2023-07-24T20:53:19.336Z,17.40
2023-07-24T20:55:47.458Z,17.30
2023-07-24T20:58:15.525Z,17.30
2023-07-24T21:00:43.647Z,17.30
2023-07-24T21:03:11.730Z,17.30
2023-07-24T21:05:40.017Z,17.30
2023-07-24T21:08:10.813Z,17.20
2023-07-24T21:10:38.863Z,17.20
2023-07-24T21:13:06.931Z,17.20
2023-07-24T21:15:35.240Z,17.10
2023-07-24T21:18:03.356Z,17.10
2023-07-24T21:20:31.472Z,17.10
2023-07-24T21:22:59.654Z,17.00
2023-07-24T21:25:29.343Z,17.00
2023-07-24T21:27:57.527Z,17.00
2023-07-24T21:30:25.635Z,17.10
2023-07-24T21:32:54.057Z,17.10
2023-07-24T21:35:22.425Z,17.00
2023-07-24T21:37:50.493Z,17.00
2023-07-24T21:40:18.725Z,17.00
2023-07-24T21:42:48.175Z,16.90
2023-07-24T21:45:16.395Z,16.90
2023-07-24T21:47:44.510Z,16.80
2023-07-24T21:50:12.598Z,16.80
2023-07-24T21:52:42.967Z,16.70
2023-07-24T21:55:11.327Z,16.70
2023-07-24T21:57:39.386Z,16.60
2023-07-24T22:00:10.003Z,16.70
2023-07-24T22:02:40.920Z,16.70
2023-07-24T22:05:09.272Z,16.70
2023-07-24T22:07:37.435Z,16.70
2023-07-24T22:10:06.045Z,16.70
2023-07-24T22:12:34.154Z,16.60
2023-07-24T22:15:02.227Z,16.70
2023-07-24T22:17:34.852Z,16.60
2023-07-24T22:20:05.422Z,16.60
2023-07-24T22:22:33.927Z,16.50
2023-07-24T22:25:02.171Z,16.50
2023-07-24T22:27:30.692Z,16.50
2023-07-24T22:29:58.969Z,16.60
2023-07-24T22:32:27.118Z,16.50
2023-07-24T22:34:56.727Z,16.40
2023-07-24T22:37:24.845Z,16.40
2023-07-24T22:39:53.910Z,16.50
2023-07-24T22:42:22.537Z,16.40
2023-07-24T22:44:50.573Z,16.40
2023-07-24T22:47:18.768Z,16.30
2023-07-24T22:49:46.854Z,16.40
2023-07-24T22:52:16.362Z,16.40
2023-07-24T22:54:44.437Z,16.40
2023-07-24T22:57:12.511Z,16.40
2023-07-24T22:59:41.492Z,16.30
2023-07-24T23:02:09.569Z,16.30
2023-07-24T23:04:37.664Z,16.30
2023-07-24T23:07:06.133Z,16.30
2023-07-24T23:09:53.298Z,16.30
2023-07-24T23:12:40.136Z,16.30
2023-07-24T23:15:08.712Z,16.20
2023-07-24T23:17:36.754Z,16.20
2023-07-24T23:20:05.574Z,16.20
2023-07-24T23:22:33.741Z,16.10
2023-07-24T23:25:03.141Z,16.10
2023-07-24T23:27:31.651Z,16.10
2023-07-24T23:29:59.734Z,16.10
2023-07-24T23:32:27.872Z,16.00
2023-07-24T23:34:56.016Z,16.00
2023-07-24T23:37:24.100Z,16.00
2023-07-24T23:39:52.265Z,16.00
2023-07-24T23:42:21.684Z,16.00
2023-07-24T23:44:49.981Z,16.00
2023-07-24T23:47:19.933Z,16.00
2023-07-24T23:49:48.339Z,15.90
2023-07-24T23:52:16.446Z,15.90
2023-07-24T23:54:44.489Z,15.90
2023-07-24T23:57:12.582Z,15.90
2023-07-24T23:59:42.438Z,15.90
